createdAt,value
2016-02-09T00:00:26.426Z,960.27
2016-02-09T00:01:26.428Z,960.3
2016-02-09T00:02:26.417Z,960.2
2016-02-09T00:03:26.420Z,960.24
2016-02-09T00:04:26.406Z,960.24
2016-02-09T00:05:26.409Z,960.21
2016-02-09T00:06:26.412Z,960.16
2016-02-09T00:07:26.399Z,960.17
2016-02-09T00:08:26.402Z,960.16
2016-02-09T00:09:26.405Z,960.13
2016-02-09T00:10:26.392Z,960.11
2016-02-09T00:11:26.395Z,960.09
2016-02-09T00:12:26.398Z,960.07
2016-02-09T00:13:26.385Z,960.06
2016-02-09T00:14:26.386Z,960.08
2016-02-09T00:15:26.406Z,960.09
2016-02-09T00:16:26.376Z,960.05
2016-02-09T00:17:26.379Z,960.07
2016-02-09T00:18:26.367Z,960.04
2016-02-09T00:19:26.370Z,960.01
2016-02-09T00:20:26.373Z,959.99
2016-02-09T00:21:26.376Z,959.94
2016-02-09T00:22:26.362Z,959.95
2016-02-09T00:23:26.357Z,959.89
2016-02-09T00:24:26.360Z,959.82
2016-02-09T00:25:26.348Z,959.8
2016-02-09T00:26:26.350Z,959.78
2016-02-09T00:27:26.340Z,959.82
2016-02-09T00:28:26.343Z,959.82
2016-02-09T00:29:26.345Z,959.83
2016-02-09T00:30:26.332Z,959.84
2016-02-09T00:31:26.335Z,959.88
2016-02-09T00:32:26.337Z,959.98
2016-02-09T00:33:26.325Z,960.02
2016-02-09T00:34:26.327Z,960
2016-02-09T00:35:26.331Z,960.14
2016-02-09T00:36:26.317Z,960.32
2016-02-09T00:37:26.320Z,960.42
2016-02-09T00:38:26.322Z,960.39
2016-02-09T00:39:26.309Z,960.35
2016-02-09T00:40:26.312Z,960.38
2016-02-09T00:41:26.302Z,960.63
2016-02-09T00:42:26.305Z,960.68
2016-02-09T00:43:26.308Z,960.77
2016-02-09T00:44:26.294Z,960.69
2016-02-09T00:45:26.298Z,960.82
2016-02-09T00:46:26.285Z,960.8
2016-02-09T00:47:26.287Z,960.8
2016-02-09T00:48:26.291Z,960.84
2016-02-09T00:49:26.279Z,960.79
2016-02-09T00:50:26.282Z,960.83
2016-02-09T00:51:26.284Z,960.8
2016-02-09T00:52:26.278Z,960.84
2016-02-09T00:53:26.264Z,960.81
2016-02-09T00:54:26.268Z,960.87
2016-02-09T00:55:26.270Z,960.79
2016-02-09T00:56:26.258Z,960.85
2016-02-09T00:57:26.261Z,960.83
2016-02-09T00:58:26.263Z,960.77
2016-02-09T00:59:26.250Z,960.78
2016-02-09T01:00:26.252Z,960.74
2016-02-09T01:01:26.255Z,960.71
2016-02-09T01:02:26.242Z,960.65
2016-02-09T01:03:26.246Z,960.67
2016-02-09T01:04:26.234Z,960.67
2016-02-09T01:05:26.236Z,960.72
2016-02-09T01:06:26.238Z,960.73
2016-02-09T01:07:26.226Z,960.67
2016-02-09T01:08:26.228Z,960.7
2016-02-09T01:09:26.231Z,960.69
2016-02-09T01:10:26.219Z,960.67
2016-02-09T01:11:26.221Z,960.6
2016-02-09T01:12:26.208Z,960.61
2016-02-09T01:13:26.210Z,960.62
2016-02-09T01:14:26.214Z,960.64
2016-02-09T01:15:26.200Z,960.6
2016-02-09T01:16:26.203Z,960.53
2016-02-09T01:17:26.207Z,960.56
2016-02-09T01:18:26.194Z,960.61
2016-02-09T01:19:26.212Z,960.6
2016-02-09T01:20:26.183Z,960.59
2016-02-09T01:21:26.186Z,960.67
2016-02-09T01:22:26.189Z,960.61
2016-02-09T01:23:26.175Z,960.64
2016-02-09T01:24:26.178Z,960.66
2016-02-09T01:25:26.181Z,960.76
2016-02-09T01:26:26.168Z,960.74
2016-02-09T01:27:26.172Z,960.7
2016-02-09T01:28:26.174Z,960.7
2016-02-09T01:29:26.160Z,960.65
2016-02-09T01:30:26.165Z,960.63
2016-02-09T01:31:26.153Z,960.68
2016-02-09T01:32:26.156Z,960.66
2016-02-09T01:33:26.158Z,960.64
2016-02-09T01:34:26.145Z,960.65
2016-02-09T01:35:26.148Z,960.59
2016-02-09T01:36:26.151Z,960.63
2016-02-09T01:37:26.137Z,960.64
2016-02-09T01:38:26.140Z,960.62
2016-02-09T01:39:26.129Z,960.58
2016-02-09T01:40:26.131Z,960.44
2016-02-09T01:41:26.134Z,960.42
2016-02-09T01:42:26.120Z,960.49
2016-02-09T01:43:26.123Z,960.44
2016-02-09T01:44:26.127Z,960.38
2016-02-09T01:45:26.114Z,960.38
2016-02-09T01:46:26.117Z,960.41
2016-02-09T01:47:26.120Z,960.44
2016-02-09T01:48:26.108Z,960.32
2016-02-09T01:49:26.111Z,960.33
2016-02-09T01:50:26.097Z,960.31
2016-02-09T01:51:26.099Z,960.4
2016-02-09T01:52:26.089Z,960.37
2016-02-09T01:53:26.093Z,960.49
2016-02-09T01:54:26.095Z,960.39
2016-02-09T01:55:26.089Z,960.48
2016-02-09T01:56:26.091Z,960.65
2016-02-09T01:57:26.077Z,960.44
2016-02-09T01:58:26.081Z,960.47
2016-02-09T01:59:26.083Z,960.59
2016-02-09T02:00:26.072Z,960.45
2016-02-09T02:01:26.075Z,960.33
2016-02-09T02:02:26.093Z,960.25
2016-02-09T02:03:26.065Z,960.25
2016-02-09T02:04:26.052Z,960.21
2016-02-09T02:05:26.055Z,960.19
2016-02-09T02:06:26.057Z,960.08
2016-02-09T02:07:26.044Z,960.11
2016-02-09T02:08:26.047Z,960.2
2016-02-09T02:09:26.049Z,960.18
2016-02-09T02:10:26.037Z,960.19
2016-02-09T02:11:26.040Z,960.27
2016-02-09T02:12:26.042Z,960.35
2016-02-09T02:13:26.030Z,960.26
2016-02-09T02:14:26.033Z,960.31
2016-02-09T02:15:26.022Z,960.31
2016-02-09T02:16:26.024Z,960.26
2016-02-09T02:17:26.027Z,960.27
2016-02-09T02:18:26.013Z,960.26
2016-02-09T02:19:26.020Z,960.21
2016-02-09T02:20:26.007Z,960.17
2016-02-09T02:21:26.010Z,960.19
2016-02-09T02:22:26.013Z,960.26
2016-02-09T02:23:26.001Z,960.24
2016-02-09T02:24:25.997Z,960.14
2016-02-09T02:25:26.002Z,960.12
2016-02-09T02:26:25.989Z,960.12
2016-02-09T02:27:25.994Z,960.09
2016-02-09T02:28:25.996Z,960.07
2016-02-09T02:29:25.983Z,960.05
2016-02-09T02:30:25.986Z,959.98
2016-02-09T02:31:25.974Z,960
2016-02-09T02:32:25.977Z,959.96
2016-02-09T02:33:25.980Z,959.91
2016-02-09T02:34:25.966Z,959.9
2016-02-09T02:35:25.968Z,959.89
2016-02-09T02:36:25.971Z,959.92
2016-02-09T02:37:25.959Z,959.85
2016-02-09T02:38:25.961Z,959.84
2016-02-09T02:39:25.948Z,959.82
2016-02-09T02:40:25.951Z,959.79
2016-02-09T02:41:25.939Z,959.74
2016-02-09T02:42:25.958Z,959.71
2016-02-09T02:43:25.945Z,959.7
2016-02-09T02:44:25.932Z,959.69
2016-02-09T02:45:25.935Z,959.65
2016-02-09T02:46:25.938Z,959.64
2016-02-09T02:47:25.925Z,959.61
2016-02-09T02:48:25.927Z,959.56
2016-02-09T02:49:25.932Z,959.57
2016-02-09T02:50:25.919Z,959.51
2016-02-09T02:51:25.921Z,959.48
2016-02-09T02:52:25.924Z,959.5
2016-02-09T02:53:25.914Z,959.48
2016-02-09T02:54:25.916Z,959.53
2016-02-09T02:55:25.904Z,959.52
2016-02-09T02:56:25.906Z,959.53
2016-02-09T02:57:25.909Z,959.54
2016-02-09T02:58:25.895Z,959.54
2016-02-09T02:59:25.898Z,959.61
2016-02-09T03:00:25.886Z,959.62
2016-02-09T03:01:25.889Z,959.58
2016-02-09T03:02:25.891Z,959.53
2016-02-09T03:03:25.880Z,959.51
2016-02-09T03:04:25.883Z,959.5
2016-02-09T03:05:25.870Z,959.51
2016-02-09T03:06:25.872Z,959.52
2016-02-09T03:07:25.875Z,959.49
2016-02-09T03:08:25.877Z,959.5
2016-02-09T03:09:25.865Z,959.45
2016-02-09T03:10:25.868Z,959.37
2016-02-09T03:11:25.855Z,959.41
2016-02-09T03:12:25.858Z,959.36
2016-02-09T03:13:25.861Z,959.26
2016-02-09T03:14:25.849Z,959.19
2016-02-09T03:15:25.851Z,959.22
2016-02-09T03:16:25.839Z,959.28
2016-02-09T03:17:25.842Z,959.28
2016-02-09T03:18:25.845Z,959.3
2016-02-09T03:19:25.831Z,959.22
2016-02-09T03:20:25.835Z,959.16
2016-02-09T03:21:25.823Z,959.09
2016-02-09T03:22:25.828Z,959.04
2016-02-09T03:23:25.831Z,959.07
2016-02-09T03:24:25.817Z,959.06
2016-02-09T03:25:25.821Z,959
2016-02-09T03:26:25.808Z,958.92
2016-02-09T03:27:25.811Z,959.02
2016-02-09T03:28:25.799Z,959.05
2016-02-09T03:29:25.801Z,959.12
2016-02-09T03:30:25.804Z,959.12
2016-02-09T03:31:25.806Z,959.15
2016-02-09T03:32:25.793Z,959.12
2016-02-09T03:33:25.796Z,959.11
2016-02-09T03:34:25.799Z,959.12
2016-02-09T03:35:25.785Z,959.14
2016-02-09T03:36:25.788Z,959.08
2016-02-09T03:37:25.776Z,959.04
2016-02-09T03:38:25.780Z,959.02
2016-02-09T03:39:25.783Z,959.09
2016-02-09T03:40:25.786Z,959.08
2016-02-09T03:41:25.772Z,959.13
2016-02-09T03:42:25.759Z,959.15
2016-02-09T03:43:25.762Z,959.14
2016-02-09T03:44:25.765Z,959.12
2016-02-09T03:45:25.753Z,959.15
2016-02-09T03:46:25.759Z,959.14
2016-02-09T03:47:25.746Z,959.12
2016-02-09T03:48:25.749Z,959.08
2016-02-09T03:49:25.751Z,959.02
2016-02-09T03:50:25.741Z,959.02
2016-02-09T03:51:25.744Z,959.01
2016-02-09T03:52:25.747Z,959
2016-02-09T03:53:25.734Z,958.99
2016-02-09T03:54:25.737Z,958.99
2016-02-09T03:55:25.723Z,958.93
2016-02-09T03:56:25.726Z,958.94
2016-02-09T03:57:25.714Z,958.85
2016-02-09T03:58:25.716Z,958.78
2016-02-09T03:59:25.719Z,958.71
2016-02-09T04:00:25.707Z,958.73
2016-02-09T04:01:25.711Z,958.69
2016-02-09T04:02:25.697Z,958.74
2016-02-09T04:03:25.700Z,958.73
2016-02-09T04:04:25.702Z,958.72
2016-02-09T04:05:25.690Z,958.76
2016-02-09T04:06:25.692Z,958.77
2016-02-09T04:07:25.695Z,958.7
2016-02-09T04:08:25.684Z,958.67
2016-02-09T04:09:25.687Z,958.64
2016-02-09T04:10:25.674Z,958.59
2016-02-09T04:11:25.676Z,958.53
2016-02-09T04:12:25.679Z,958.56
2016-02-09T04:13:25.666Z,958.52
2016-02-09T04:14:25.673Z,958.5
2016-02-09T04:15:25.660Z,958.51
2016-02-09T04:16:25.662Z,958.48
2016-02-09T04:17:25.665Z,958.39
2016-02-09T04:18:25.652Z,958.36
2016-02-09T04:19:25.655Z,958.3
2016-02-09T04:20:25.657Z,958.29
2016-02-09T04:21:25.650Z,958.24
2016-02-09T04:22:25.649Z,958.22
2016-02-09T04:23:25.636Z,958.2
2016-02-09T04:24:25.638Z,958.16
2016-02-09T04:25:25.641Z,958.13
2016-02-09T04:26:25.628Z,958.05
2016-02-09T04:27:25.632Z,958.08
2016-02-09T04:28:25.620Z,958.05
2016-02-09T04:29:25.623Z,958.04
2016-02-09T04:30:25.626Z,958.04
2016-02-09T04:31:25.612Z,958.08
2016-02-09T04:32:25.615Z,958.09
2016-02-09T04:33:25.603Z,958.05
2016-02-09T04:34:25.606Z,958.09
2016-02-09T04:35:25.608Z,958.1
2016-02-09T04:36:25.596Z,958.06
2016-02-09T04:37:25.599Z,958
2016-02-09T04:38:25.602Z,958.06
2016-02-09T04:39:25.588Z,958.07
2016-02-09T04:40:25.591Z,958.05
2016-02-09T04:41:25.579Z,958.01
2016-02-09T04:42:25.581Z,957.96
2016-02-09T04:43:25.584Z,957.94
2016-02-09T04:44:25.571Z,957.87
2016-02-09T04:45:25.574Z,957.78
2016-02-09T04:46:25.577Z,957.77
2016-02-09T04:47:25.564Z,957.74
2016-02-09T04:48:25.566Z,957.72
2016-02-09T04:49:25.555Z,957.72
2016-02-09T04:50:25.558Z,957.73
2016-02-09T04:51:25.563Z,957.69
2016-02-09T04:52:25.550Z,957.61
2016-02-09T04:53:25.553Z,957.57
2016-02-09T04:54:25.555Z,957.52
2016-02-09T04:55:25.542Z,957.51
2016-02-09T04:56:25.545Z,957.54
2016-02-09T04:57:25.549Z,957.58
2016-02-09T04:58:25.536Z,957.55
2016-02-09T04:59:25.523Z,957.52
2016-02-09T05:00:25.526Z,957.53
2016-02-09T05:01:25.528Z,957.47
2016-02-09T05:02:25.515Z,957.47
2016-02-09T05:03:25.518Z,957.41
2016-02-09T05:04:25.522Z,957.4
2016-02-09T05:05:25.509Z,957.43
2016-02-09T05:06:25.512Z,957.37
2016-02-09T05:07:25.514Z,957.32
2016-02-09T05:08:25.501Z,957.27
2016-02-09T05:09:25.504Z,957.18
2016-02-09T05:10:25.492Z,957.18
2016-02-09T05:11:25.495Z,957.23
2016-02-09T05:12:25.498Z,957.3
2016-02-09T05:13:25.500Z,957.28
2016-02-09T05:14:25.488Z,957.23
2016-02-09T05:15:25.474Z,957.18
2016-02-09T05:16:25.476Z,957.15
2016-02-09T05:17:25.479Z,957.13
2016-02-09T05:18:25.467Z,957.19
2016-02-09T05:19:25.470Z,957.15
2016-02-09T05:20:25.472Z,957.09
2016-02-09T05:21:25.459Z,957.11
2016-02-09T05:22:25.452Z,957.12
2016-02-09T05:23:25.456Z,957.06
2016-02-09T05:24:25.458Z,957.13
2016-02-09T05:25:25.446Z,957.13
2016-02-09T05:26:25.448Z,957.13
2016-02-09T05:27:25.435Z,957.13
2016-02-09T05:28:25.438Z,957.09
2016-02-09T05:29:25.441Z,957.08
2016-02-09T05:30:25.440Z,957.02
2016-02-09T05:31:25.427Z,957.04
2016-02-09T05:32:25.429Z,957.08
2016-02-09T05:33:25.420Z,957.07
2016-02-09T05:34:25.422Z,957.04
2016-02-09T05:35:25.425Z,957.03
2016-02-09T05:36:25.411Z,956.95
2016-02-09T05:37:25.414Z,956.86
2016-02-09T05:38:25.417Z,956.88
2016-02-09T05:39:25.419Z,956.86
2016-02-09T05:40:25.407Z,956.86
2016-02-09T05:41:25.394Z,956.82
2016-02-09T05:42:25.413Z,956.82
2016-02-09T05:43:25.399Z,956.82
2016-02-09T05:44:25.386Z,956.84
2016-02-09T05:45:25.388Z,956.8
2016-02-09T05:46:25.391Z,956.8
2016-02-09T05:47:25.382Z,956.82
2016-02-09T05:48:25.384Z,956.81
2016-02-09T05:49:25.370Z,956.78
2016-02-09T05:50:25.373Z,956.8
2016-02-09T05:51:25.375Z,956.73
2016-02-09T05:52:25.395Z,956.73
2016-02-09T05:53:25.367Z,956.7
2016-02-09T05:54:25.355Z,956.73
2016-02-09T05:55:25.357Z,956.75
2016-02-09T05:56:25.360Z,956.73
2016-02-09T05:57:25.347Z,956.64
2016-02-09T05:58:25.350Z,956.65
2016-02-09T05:59:25.352Z,956.63
2016-02-09T06:00:25.340Z,956.63
2016-02-09T06:01:25.343Z,956.56
2016-02-09T06:02:25.330Z,956.5
2016-02-09T06:03:25.333Z,956.53
2016-02-09T06:04:25.336Z,956.57
2016-02-09T06:05:25.323Z,956.56
2016-02-09T06:06:25.325Z,956.62
2016-02-09T06:07:25.317Z,956.53
2016-02-09T06:08:25.319Z,956.54
2016-02-09T06:09:25.308Z,956.6
2016-02-09T06:10:25.326Z,956.56
2016-02-09T06:11:25.314Z,956.49
2016-02-09T06:12:25.300Z,956.49
2016-02-09T06:13:25.303Z,956.57
2016-02-09T06:14:25.291Z,956.45
2016-02-09T06:15:25.294Z,956.33
2016-02-09T06:16:25.297Z,956.26
2016-02-09T06:17:25.290Z,956.21
2016-02-09T06:18:25.293Z,956.16
2016-02-09T06:19:25.281Z,956.08
2016-02-09T06:20:25.283Z,955.99
2016-02-09T06:21:25.277Z,955.89
2016-02-09T06:22:25.280Z,955.9
2016-02-09T06:23:25.283Z,955.78
2016-02-09T06:24:25.271Z,955.8
2016-02-09T06:25:25.273Z,955.65
2016-02-09T06:26:25.281Z,955.62
2016-02-09T06:27:25.267Z,955.56
2016-02-09T06:28:25.254Z,955.51
2016-02-09T06:29:25.257Z,955.42
2016-02-09T06:30:25.262Z,955.41
2016-02-09T06:31:25.264Z,955.45
2016-02-09T06:32:25.252Z,955.37
2016-02-09T06:33:25.255Z,955.36
2016-02-09T06:34:25.242Z,955.35
2016-02-09T06:35:25.244Z,955.37
2016-02-09T06:36:25.248Z,955.29
2016-02-09T06:37:25.235Z,955.26
2016-02-09T06:38:25.222Z,955.23
2016-02-09T06:39:25.224Z,955.27
2016-02-09T06:40:25.228Z,955.21
2016-02-09T06:41:25.214Z,955.25
2016-02-09T06:42:25.217Z,955.29
2016-02-09T06:43:25.220Z,955.29
2016-02-09T06:44:25.207Z,955.31
2016-02-09T06:45:25.210Z,955.24
2016-02-09T06:46:25.213Z,955.23
2016-02-09T06:47:25.200Z,955.13
2016-02-09T06:48:25.203Z,955.14
2016-02-09T06:49:25.190Z,955.1
2016-02-09T06:50:25.195Z,955.12
2016-02-09T06:51:25.199Z,955.18
2016-02-09T06:52:25.186Z,955.25
2016-02-09T06:53:25.177Z,955.35
2016-02-09T06:54:25.180Z,955.39
2016-02-09T06:55:25.183Z,955.45
2016-02-09T06:56:25.186Z,955.43
2016-02-09T06:57:25.173Z,955.42
2016-02-09T06:58:25.162Z,955.44
2016-02-09T06:59:25.164Z,955.37
2016-02-09T07:00:25.168Z,955.33
2016-02-09T07:01:25.170Z,955.36
2016-02-09T07:02:25.158Z,955.34
2016-02-09T07:03:25.160Z,955.32
2016-02-09T07:04:25.147Z,955.31
2016-02-09T07:05:25.156Z,955.31
2016-02-09T07:06:25.142Z,955.24
2016-02-09T07:07:25.146Z,955.21
2016-02-09T07:08:25.133Z,955.15
2016-02-09T07:09:25.136Z,955.17
2016-02-09T07:10:25.138Z,955.15
2016-02-09T07:11:25.129Z,955.11
2016-02-09T07:12:25.131Z,955.16
2016-02-09T07:13:25.119Z,955.12
2016-02-09T07:14:25.121Z,955.14
2016-02-09T07:15:25.108Z,955.12
2016-02-09T07:16:25.112Z,955.13
2016-02-09T07:17:25.114Z,955.17
2016-02-09T07:18:25.101Z,955.14
2016-02-09T07:19:25.104Z,955.12
2016-02-09T07:20:25.106Z,955.09
2016-02-09T07:21:25.109Z,955.15
2016-02-09T07:22:25.097Z,955.23
2016-02-09T07:23:25.099Z,955.22
2016-02-09T07:24:25.091Z,955.23
2016-02-09T07:25:25.094Z,955.21
2016-02-09T07:26:25.080Z,955.18
2016-02-09T07:27:25.083Z,955.14
2016-02-09T07:28:25.086Z,955
2016-02-09T07:29:25.073Z,954.88
2016-02-09T07:30:25.076Z,954.86
2016-02-09T07:31:25.079Z,954.9
2016-02-09T07:32:25.065Z,954.96
2016-02-09T07:33:25.069Z,955.07
2016-02-09T07:34:25.056Z,955.09
2016-02-09T07:35:25.059Z,955.14
2016-02-09T07:36:25.061Z,955.23
2016-02-09T07:37:25.049Z,955.23
2016-02-09T07:38:25.052Z,955.18
2016-02-09T07:39:25.039Z,955.11
2016-02-09T07:40:25.042Z,955.09
2016-02-09T07:41:25.044Z,955.02
2016-02-09T07:42:25.032Z,954.86
2016-02-09T07:43:25.051Z,954.72
2016-02-09T07:44:25.038Z,954.68
2016-02-09T07:45:25.025Z,954.67
2016-02-09T07:46:25.028Z,954.56
2016-02-09T07:47:25.018Z,954.52
2016-02-09T07:48:25.020Z,954.54
2016-02-09T07:49:25.024Z,954.44
2016-02-09T07:50:25.010Z,954.4
2016-02-09T07:51:25.012Z,954.42
2016-02-09T07:52:25.015Z,954.45
2016-02-09T07:53:25.005Z,954.51
2016-02-09T07:54:25.007Z,954.47
2016-02-09T07:55:24.996Z,954.49
2016-02-09T07:56:24.999Z,954.53
2016-02-09T07:57:24.985Z,954.57
2016-02-09T07:58:24.989Z,954.6
2016-02-09T07:59:24.991Z,954.59
2016-02-09T08:00:24.978Z,954.54
2016-02-09T08:01:24.984Z,954.52
2016-02-09T08:02:24.986Z,954.42
2016-02-09T08:03:24.973Z,954.4
2016-02-09T08:04:24.976Z,954.34
2016-02-09T08:05:24.979Z,954.32
2016-02-09T08:06:24.967Z,954.29
2016-02-09T08:07:24.969Z,954.29
2016-02-09T08:08:24.972Z,954.25
2016-02-09T08:09:24.961Z,954.28
2016-02-09T08:10:24.963Z,954.24
2016-02-09T08:11:24.950Z,954.14
2016-02-09T08:12:24.953Z,954.04
2016-02-09T08:13:24.956Z,954.06
2016-02-09T08:14:24.943Z,954.16
2016-02-09T08:15:24.950Z,954.21
2016-02-09T08:16:24.936Z,954.22
2016-02-09T08:17:24.944Z,954.28
2016-02-09T08:18:24.930Z,954.33
2016-02-09T08:19:24.932Z,954.43
2016-02-09T08:20:24.921Z,954.42
2016-02-09T08:21:24.925Z,954.38
2016-02-09T08:22:24.928Z,954.37
2016-02-09T08:23:24.918Z,954.36
2016-02-09T08:24:24.920Z,954.37
2016-02-09T08:25:24.906Z,954.3
2016-02-09T08:26:24.910Z,954.24
2016-02-09T08:27:24.912Z,954.21
2016-02-09T08:28:24.900Z,954.17
2016-02-09T08:29:24.903Z,954.16
2016-02-09T08:30:24.905Z,954.05
2016-02-09T08:31:24.896Z,954.03
2016-02-09T08:32:24.899Z,954.02
2016-02-09T08:33:24.886Z,954.03
2016-02-09T08:34:24.888Z,954.07
2016-02-09T08:35:24.890Z,954.11
2016-02-09T08:36:24.879Z,954.13
2016-02-09T08:37:24.881Z,954.17
2016-02-09T08:38:24.867Z,954.14
2016-02-09T08:39:24.871Z,954.16
2016-02-09T08:40:24.871Z,954.2
2016-02-09T08:41:24.845Z,954.12
2016-02-09T08:42:24.835Z,954.14
2016-02-09T08:43:24.824Z,954.09
2016-02-09T08:44:24.800Z,954.07
2016-02-09T08:45:24.793Z,953.95
2016-02-09T08:46:24.791Z,953.94
2016-02-09T08:47:24.774Z,953.91
2016-02-09T08:48:24.771Z,953.95
2016-02-09T08:49:24.770Z,953.94
2016-02-09T08:50:24.754Z,953.93
2016-02-09T08:51:24.756Z,953.89
2016-02-09T08:52:24.741Z,953.86
2016-02-09T08:53:24.744Z,953.85
2016-02-09T08:54:24.745Z,953.9
2016-02-09T08:55:24.747Z,953.85
2016-02-09T08:56:24.733Z,953.86
2016-02-09T08:57:24.735Z,953.78
2016-02-09T08:58:24.726Z,953.74
2016-02-09T08:59:24.727Z,953.72
2016-02-09T09:00:24.730Z,953.77
2016-02-09T09:01:24.717Z,953.83
2016-02-09T09:02:24.719Z,953.78
2016-02-09T09:03:24.722Z,953.72
2016-02-09T09:04:24.708Z,953.64
2016-02-09T09:05:24.710Z,953.55
2016-02-09T09:06:24.697Z,953.46
2016-02-09T09:07:24.716Z,953.37
2016-02-09T09:08:24.688Z,953.48
2016-02-09T09:09:24.691Z,953.59
2016-02-09T09:10:24.694Z,953.57
2016-02-09T09:11:24.681Z,953.54
2016-02-09T09:12:24.683Z,953.44
2016-02-09T09:13:24.686Z,953.29
2016-02-09T09:14:24.690Z,953.22
2016-02-09T09:15:24.679Z,953.25
2016-02-09T09:16:24.681Z,953.33
2016-02-09T09:17:24.684Z,953.35
2016-02-09T09:18:24.677Z,953.44
2016-02-09T09:19:24.663Z,953.46
2016-02-09T09:20:24.685Z,953.36
2016-02-09T09:21:24.671Z,953.2
2016-02-09T09:22:24.659Z,953.23
2016-02-09T09:23:24.661Z,953.32
2016-02-09T09:24:24.648Z,953.4
2016-02-09T09:25:24.652Z,953.35
2016-02-09T09:26:24.654Z,953.27
2016-02-09T09:27:24.657Z,953.28
2016-02-09T09:28:24.643Z,953.23
2016-02-09T09:29:24.648Z,953.13
2016-02-09T09:30:24.651Z,953.12
2016-02-09T09:31:24.638Z,953
2016-02-09T09:32:24.625Z,952.91
2016-02-09T09:33:24.644Z,952.87
2016-02-09T09:34:24.631Z,952.79
2016-02-09T09:35:24.619Z,952.79
2016-02-09T09:36:24.621Z,952.72
2016-02-09T09:37:24.623Z,952.64
2016-02-09T09:38:24.612Z,952.58
2016-02-09T09:39:24.614Z,952.45
2016-02-09T09:40:24.616Z,952.4
2016-02-09T09:41:24.603Z,952.34
2016-02-09T09:42:24.607Z,952.28
2016-02-09T09:43:24.610Z,952.19
2016-02-09T09:44:24.612Z,952.06
2016-02-09T09:45:24.599Z,951.91
2016-02-09T09:46:24.587Z,951.85
2016-02-09T09:47:24.620Z,951.86
2016-02-09T09:48:24.587Z,951.79
2016-02-09T09:49:24.605Z,951.75
2016-02-09T09:50:24.591Z,951.68
2016-02-09T09:51:24.578Z,951.64
2016-02-09T09:52:24.581Z,951.61
2016-02-09T09:53:24.584Z,951.53
2016-02-09T09:54:24.571Z,951.42
2016-02-09T09:55:24.574Z,951.38
2016-02-09T09:56:24.578Z,951.41
2016-02-09T09:57:24.580Z,951.4
2016-02-09T09:58:24.568Z,951.39
2016-02-09T09:59:24.554Z,951.46
2016-02-09T10:00:24.556Z,951.49
2016-02-09T10:01:24.559Z,951.37
2016-02-09T10:02:24.547Z,951.36
2016-02-09T10:03:24.549Z,951.28
2016-02-09T10:04:24.552Z,951.29
2016-02-09T10:05:24.539Z,951.24
2016-02-09T10:06:24.542Z,951.2
2016-02-09T10:07:24.544Z,951.25
2016-02-09T10:08:24.531Z,951.28
2016-02-09T10:09:24.534Z,951.31
2016-02-09T10:10:24.536Z,951.33
2016-02-09T10:11:24.539Z,951.31
2016-02-09T10:12:24.527Z,951.25
2016-02-09T10:13:24.529Z,951.17
2016-02-09T10:14:24.516Z,951.09
2016-02-09T10:15:24.518Z,950.93
2016-02-09T10:16:24.522Z,950.84
2016-02-09T10:17:24.509Z,950.77
2016-02-09T10:18:24.512Z,950.72
2016-02-09T10:19:24.519Z,950.71
2016-02-09T10:20:24.506Z,950.67
2016-02-09T10:21:24.508Z,950.66
2016-02-09T10:22:24.510Z,950.7
2016-02-09T10:23:24.497Z,950.77
2016-02-09T10:24:24.500Z,950.8
2016-02-09T10:25:24.503Z,950.88
2016-02-09T10:26:24.490Z,950.92
2016-02-09T10:27:24.493Z,950.96
2016-02-09T10:28:24.480Z,950.97
2016-02-09T10:29:24.486Z,950.92
2016-02-09T10:30:24.473Z,950.9
2016-02-09T10:31:24.476Z,950.92
2016-02-09T10:32:24.479Z,950.95
2016-02-09T10:33:24.466Z,950.87
2016-02-09T10:34:24.469Z,950.88
2016-02-09T10:35:24.472Z,950.8
2016-02-09T10:36:24.458Z,950.81
2016-02-09T10:37:24.461Z,950.77
2016-02-09T10:38:24.464Z,950.7
2016-02-09T10:39:24.467Z,950.63
2016-02-09T10:40:24.453Z,950.6
2016-02-09T10:41:24.455Z,950.54
2016-02-09T10:42:24.459Z,950.57
2016-02-09T10:43:24.446Z,950.48
2016-02-09T10:44:24.448Z,950.48
2016-02-09T10:45:24.454Z,950.47
2016-02-09T10:46:24.440Z,950.28
2016-02-09T10:47:24.443Z,950.04
2016-02-09T10:48:24.446Z,950
2016-02-09T10:49:24.433Z,950.09
2016-02-09T10:50:24.436Z,950.07
2016-02-09T10:51:24.434Z,949.97
2016-02-09T10:52:24.420Z,949.9
2016-02-09T10:53:24.423Z,949.93
2016-02-09T10:54:24.426Z,949.93
2016-02-09T10:55:24.412Z,949.94
2016-02-09T10:56:24.431Z,949.9
2016-02-09T10:57:24.418Z,949.87
2016-02-09T10:58:24.405Z,949.83
2016-02-09T10:59:24.408Z,949.81
2016-02-09T11:00:24.411Z,949.81
2016-02-09T11:01:24.398Z,949.82
2016-02-09T11:02:24.401Z,949.79
2016-02-09T11:03:24.404Z,949.77
2016-02-09T11:04:24.407Z,949.72
2016-02-09T11:05:24.393Z,949.73
2016-02-09T11:06:24.396Z,949.72
2016-02-09T11:07:24.399Z,949.77
2016-02-09T11:08:24.387Z,949.73
2016-02-09T11:09:24.390Z,949.64
2016-02-09T11:10:24.380Z,949.61
2016-02-09T11:11:24.383Z,949.52
2016-02-09T11:12:24.386Z,949.43
2016-02-09T11:13:24.373Z,949.39
2016-02-09T11:14:24.375Z,949.28
2016-02-09T11:15:24.379Z,949.21
2016-02-09T11:16:24.366Z,949.14
2016-02-09T11:17:24.368Z,949.13
2016-02-09T11:18:24.359Z,949.05
2016-02-09T11:19:24.361Z,948.95
2016-02-09T11:20:24.364Z,948.92
2016-02-09T11:21:24.352Z,948.92
2016-02-09T11:22:24.356Z,948.9
2016-02-09T11:23:24.359Z,948.87
2016-02-09T11:24:24.346Z,948.89
2016-02-09T11:25:24.350Z,948.92
2016-02-09T11:26:24.352Z,948.85
2016-02-09T11:27:24.355Z,948.81
2016-02-09T11:28:24.341Z,948.8
2016-02-09T11:29:24.346Z,948.79
2016-02-09T11:30:24.333Z,948.69
2016-02-09T11:31:24.337Z,948.64
2016-02-09T11:32:24.339Z,948.64
2016-02-09T11:33:24.342Z,948.57
2016-02-09T11:34:24.328Z,948.49
2016-02-09T11:35:24.331Z,948.45
2016-02-09T11:36:24.334Z,948.39
2016-02-09T11:37:24.320Z,948.35
2016-02-09T11:38:24.325Z,948.29
2016-02-09T11:39:24.328Z,948.18
2016-02-09T11:40:24.316Z,948.14
2016-02-09T11:41:24.318Z,948.08
2016-02-09T11:42:24.321Z,947.96
2016-02-09T11:43:24.308Z,947.9
2016-02-09T11:44:24.311Z,947.91
2016-02-09T11:45:24.313Z,947.89
2016-02-09T11:46:24.303Z,947.91
2016-02-09T11:47:24.305Z,947.89
2016-02-09T11:48:24.308Z,947.88
2016-02-09T11:49:24.296Z,947.88
2016-02-09T11:50:24.298Z,947.9
2016-02-09T11:51:24.291Z,947.92
2016-02-09T11:52:24.294Z,947.97
2016-02-09T11:53:24.297Z,948.01
2016-02-09T11:54:24.287Z,948.02
2016-02-09T11:55:24.290Z,948.09
2016-02-09T11:56:24.293Z,948.11
2016-02-09T11:57:24.280Z,948.16
2016-02-09T11:58:24.283Z,948.14
2016-02-09T11:59:24.286Z,948.11
2016-02-09T12:00:24.273Z,948.08
2016-02-09T12:01:24.275Z,948.14
2016-02-09T12:02:24.281Z,948.09
2016-02-09T12:03:24.268Z,948.1
2016-02-09T12:04:24.270Z,947.99
2016-02-09T12:05:24.279Z,947.98
2016-02-09T12:06:24.266Z,948.02
2016-02-09T12:07:24.269Z,947.9
2016-02-09T12:08:24.271Z,947.84
2016-02-09T12:09:24.259Z,947.81
2016-02-09T12:10:24.262Z,947.84
2016-02-09T12:11:24.251Z,947.86
2016-02-09T12:12:24.254Z,947.83
2016-02-09T12:13:24.257Z,947.71
2016-02-09T12:14:24.244Z,947.59
2016-02-09T12:15:24.247Z,947.6
2016-02-09T12:16:24.250Z,947.61
2016-02-09T12:17:24.253Z,947.6
2016-02-09T12:18:24.239Z,947.58
2016-02-09T12:19:24.242Z,947.65
2016-02-09T12:20:24.245Z,947.57
2016-02-09T12:21:24.237Z,947.48
2016-02-09T12:22:24.241Z,947.45
2016-02-09T12:23:24.243Z,947.43
2016-02-09T12:24:24.230Z,947.46
2016-02-09T12:25:24.232Z,947.47
2016-02-09T12:26:24.235Z,947.54
2016-02-09T12:27:24.226Z,947.45
2016-02-09T12:28:24.228Z,947.35
2016-02-09T12:29:24.215Z,947.39
2016-02-09T12:30:24.222Z,947.44
2016-02-09T12:31:24.208Z,947.37